createdAt,value
2022-08-25T00:00:22.585Z,14.27
2022-08-25T00:02:56.147Z,9.30
2022-08-25T00:05:32.301Z,11.02
2022-08-25T00:08:02.806Z,11.13
2022-08-25T00:10:32.608Z,11.40
2022-08-25T00:13:02.019Z,10.38
2022-08-25T00:15:33.943Z,8.52
2022-08-25T00:18:04.818Z,9.32
2022-08-25T00:20:48.699Z,15.90
2022-08-25T00:23:19.586Z,10.73
2022-08-25T00:25:49.508Z,13.02
2022-08-25T00:28:19.459Z,13.90
2022-08-25T00:30:50.725Z,18.17
2022-08-25T00:33:21.544Z,18.95
2022-08-25T00:35:52.839Z,14.07
2022-08-25T00:38:22.330Z,11.43
2022-08-25T00:41:07.333Z,10.80
2022-08-25T00:43:56.907Z,15.35
2022-08-25T00:46:27.911Z,20.85
2022-08-25T00:49:01.985Z,19.77
2022-08-25T00:51:53.244Z,18.75
2022-08-25T00:54:43.583Z,18.42
2022-08-25T00:57:14.170Z,17.48
2022-08-25T00:59:44.758Z,20.88
2022-08-25T01:02:15.575Z,15.70
2022-08-25T01:04:49.235Z,22.98
2022-08-25T01:07:19.989Z,21.00
2022-08-25T01:09:50.454Z,21.75
2022-08-25T01:12:19.989Z,15.88
2022-08-25T01:14:49.684Z,20.83
2022-08-25T01:17:19.436Z,21.95
2022-08-25T01:19:50.171Z,13.77
2022-08-25T01:22:20.277Z,16.08
2022-08-25T01:24:55.123Z,13.98
2022-08-25T01:27:24.791Z,18.40
2022-08-25T01:29:54.471Z,14.50
2022-08-25T01:32:24.028Z,13.52
2022-08-25T01:34:53.667Z,12.38
2022-08-25T01:37:23.199Z,10.73
2022-08-25T01:39:52.761Z,14.48
2022-08-25T01:42:26.594Z,16.08
2022-08-25T01:44:56.139Z,10.00
2022-08-25T01:47:26.065Z,15.55
2022-08-25T01:49:55.706Z,9.05
2022-08-25T01:52:31.553Z,9.02
2022-08-25T01:55:01.250Z,7.78
2022-08-25T01:57:32.896Z,8.82
2022-08-25T02:00:04.277Z,8.77
2022-08-25T02:02:33.900Z,12.80
2022-08-25T02:05:03.778Z,11.93
2022-08-25T02:07:34.826Z,11.40
2022-08-25T02:10:05.652Z,5.53
2022-08-25T02:12:35.467Z,9.35
2022-08-25T02:15:07.036Z,11.25
2022-08-25T02:17:38.267Z,8.20
2022-08-25T02:20:10.898Z,12.57
2022-08-25T02:22:41.024Z,7.43
2022-08-25T02:25:14.846Z,7.68
2022-08-25T02:27:44.624Z,8.27
2022-08-25T02:30:18.138Z,9.38
2022-08-25T02:32:47.593Z,6.68
2022-08-25T02:35:17.442Z,8.38
2022-08-25T02:37:48.336Z,8.15
2022-08-25T02:40:23.594Z,15.27
2022-08-25T02:42:53.391Z,7.43
2022-08-25T02:45:23.097Z,10.73
2022-08-25T02:47:52.923Z,10.07
2022-08-25T02:50:22.607Z,10.65
2022-08-25T02:52:53.396Z,12.40
2022-08-25T02:55:23.609Z,8.18
2022-08-25T02:57:53.241Z,9.02
2022-08-25T03:00:23.232Z,10.30
2022-08-25T03:02:53.205Z,5.60
2022-08-25T03:05:22.963Z,7.75
2022-08-25T03:07:52.468Z,9.25
2022-08-25T03:10:23.745Z,6.68
2022-08-25T03:12:53.398Z,8.15
2022-08-25T03:15:23.047Z,6.20
2022-08-25T03:17:52.961Z,7.25
2022-08-25T03:20:22.914Z,6.90
2022-08-25T03:22:53.391Z,11.05
2022-08-25T03:25:42.837Z,6.93
2022-08-25T03:28:13.604Z,6.22
2022-08-25T03:30:43.667Z,7.05
2022-08-25T03:33:13.634Z,5.40
2022-08-25T03:35:43.245Z,5.72
2022-08-25T03:38:13.141Z,8.70
2022-08-25T03:40:42.822Z,7.53
2022-08-25T03:43:12.421Z,4.72
2022-08-25T03:45:45.541Z,7.53
2022-08-25T03:48:15.608Z,7.00
2022-08-25T03:50:50.629Z,4.05
2022-08-25T03:53:21.832Z,8.10
2022-08-25T03:55:53.556Z,8.13
2022-08-25T03:58:24.402Z,19.48
2022-08-25T04:00:54.030Z,7.35
2022-08-25T04:03:23.626Z,6.30
2022-08-25T04:05:53.534Z,9.30
2022-08-25T04:08:23.841Z,6.43
2022-08-25T04:10:53.544Z,8.90
2022-08-25T04:13:24.116Z,13.25
2022-08-25T04:15:53.731Z,12.15
2022-08-25T04:18:23.369Z,8.73
2022-08-25T04:20:53.526Z,9.90
2022-08-25T04:23:23.277Z,8.45
2022-08-25T04:25:53.478Z,7.20
2022-08-25T04:28:23.141Z,8.40
2022-08-25T04:30:52.920Z,10.15
2022-08-25T04:33:22.357Z,6.82
2022-08-25T04:35:52.266Z,13.57
2022-08-25T04:38:21.734Z,9.52
2022-08-25T04:40:59.186Z,10.20
2022-08-25T04:43:28.740Z,11.52
2022-08-25T04:45:58.352Z,9.90
2022-08-25T04:48:30.708Z,8.30
2022-08-25T04:51:00.311Z,10.73
2022-08-25T04:53:29.854Z,12.43
2022-08-25T04:56:03.561Z,13.50
2022-08-25T04:58:33.517Z,12.75
2022-08-25T05:01:08.103Z,15.38
2022-08-25T05:03:37.816Z,11.52
2022-08-25T05:06:10.885Z,14.05
2022-08-25T05:08:42.478Z,17.45
2022-08-25T05:11:16.149Z,9.70
2022-08-25T05:13:46.378Z,6.88
2022-08-25T05:16:21.763Z,11.38
2022-08-25T05:18:54.182Z,19.05
2022-08-25T05:21:25.747Z,12.05
2022-08-25T05:23:59.116Z,14.07
2022-08-25T05:26:29.146Z,15.70
2022-08-25T05:28:58.764Z,16.77
2022-08-25T05:31:28.858Z,14.27
2022-08-25T05:33:58.561Z,12.40
2022-08-25T05:36:28.626Z,22.40
2022-08-25T05:38:59.040Z,16.73
2022-08-25T05:41:31.341Z,15.68
2022-08-25T05:44:01.248Z,16.65
2022-08-25T05:46:31.813Z,14.60
2022-08-25T05:49:01.578Z,9.63
2022-08-25T05:51:31.377Z,9.00
2022-08-25T05:54:01.227Z,9.07
2022-08-25T05:56:31.056Z,9.95
2022-08-25T05:59:00.640Z,8.02
2022-08-25T06:01:48.676Z,31.58
2022-08-25T06:04:19.682Z,22.70
2022-08-25T06:06:50.384Z,22.55
2022-08-25T06:09:21.482Z,16.45
2022-08-25T06:11:54.679Z,12.43
2022-08-25T06:14:24.649Z,9.10
2022-08-25T06:16:54.706Z,9.88
2022-08-25T06:19:24.719Z,13.48
2022-08-25T06:21:58.645Z,16.20
2022-08-25T06:24:29.104Z,14.52
2022-08-25T06:26:58.759Z,9.57
2022-08-25T06:29:28.360Z,11.43
2022-08-25T06:31:57.962Z,13.93
2022-08-25T06:34:28.723Z,11.70
2022-08-25T06:36:58.502Z,11.48
2022-08-25T06:39:28.120Z,11.32
2022-08-25T06:41:57.837Z,7.72
2022-08-25T06:44:29.102Z,27.52
2022-08-25T06:46:58.912Z,9.82
2022-08-25T06:49:34.163Z,13.98
2022-08-25T06:52:05.773Z,10.02
2022-08-25T06:54:35.437Z,7.85
2022-08-25T06:57:04.986Z,8.68
2022-08-25T06:59:34.860Z,9.48
2022-08-25T07:02:04.559Z,7.47
2022-08-25T07:04:34.450Z,9.55
2022-08-25T07:07:04.106Z,11.60
2022-08-25T07:09:38.584Z,10.15
2022-08-25T07:12:09.389Z,9.25
2022-08-25T07:14:39.388Z,5.70
2022-08-25T07:17:12.009Z,9.20
2022-08-25T07:19:43.592Z,7.82
2022-08-25T07:22:14.856Z,7.45
2022-08-25T07:24:45.531Z,8.90
2022-08-25T07:27:15.071Z,8.13
2022-08-25T07:29:44.671Z,8.82
2022-08-25T07:32:14.267Z,5.50
2022-08-25T07:35:02.411Z,7.55
2022-08-25T07:37:47.659Z,9.45
2022-08-25T07:40:23.746Z,8.98
2022-08-25T07:42:54.075Z,12.63
2022-08-25T07:45:30.857Z,13.93
2022-08-25T07:48:02.455Z,14.07
2022-08-25T07:50:32.929Z,10.13
2022-08-25T07:53:02.674Z,10.38
2022-08-25T07:55:32.268Z,14.50
2022-08-25T07:58:03.046Z,10.73
2022-08-25T08:00:35.871Z,6.28
2022-08-25T08:03:10.033Z,7.03
2022-08-25T08:05:43.521Z,6.63
2022-08-25T08:08:13.680Z,7.00
2022-08-25T08:11:03.201Z,10.40
2022-08-25T08:13:34.138Z,11.00
2022-08-25T08:16:08.279Z,17.00
2022-08-25T08:18:37.883Z,12.38
2022-08-25T08:21:08.393Z,26.23
2022-08-25T08:23:39.247Z,14.55
2022-08-25T08:26:08.996Z,11.30
2022-08-25T08:28:39.038Z,10.88
2022-08-25T08:31:10.682Z,16.05
2022-08-25T08:33:41.608Z,11.57
2022-08-25T08:36:13.258Z,6.72
2022-08-25T08:38:43.586Z,9.38
2022-08-25T08:42:09.561Z,9.23
2022-08-25T08:44:41.236Z,15.82
2022-08-25T08:47:20.355Z,13.73
2022-08-25T08:49:52.213Z,10.63
2022-08-25T08:52:22.281Z,16.95
2022-08-25T08:54:53.194Z,15.65
2022-08-25T08:57:23.738Z,10.50
2022-08-25T08:59:58.957Z,13.73
2022-08-25T09:02:39.507Z,15.05
2022-08-25T09:05:21.499Z,16.55
2022-08-25T09:08:12.963Z,10.27
2022-08-25T09:11:03.919Z,9.80
2022-08-25T09:13:46.823Z,8.13
2022-08-25T09:16:41.146Z,7.05
2022-08-25T09:19:27.372Z,9.32
2022-08-25T09:22:00.098Z,10.20
2022-08-25T09:24:48.281Z,5.82
2022-08-25T09:27:18.090Z,5.67
2022-08-25T09:29:53.942Z,9.48
2022-08-25T09:32:24.039Z,10.13
2022-08-25T09:34:56.097Z,6.72
2022-08-25T09:37:27.328Z,9.32
2022-08-25T09:39:58.216Z,18.45
2022-08-25T09:42:49.655Z,8.55
2022-08-25T09:45:19.713Z,10.90
2022-08-25T09:47:52.942Z,9.88
2022-08-25T09:50:24.584Z,13.23
2022-08-25T09:52:55.259Z,15.75
2022-08-25T09:55:33.200Z,10.85
2022-08-25T09:58:02.730Z,13.88
2022-08-25T10:00:39.547Z,10.50
2022-08-25T10:03:29.639Z,13.35
2022-08-25T10:05:59.201Z,18.42
2022-08-25T10:08:34.167Z,19.83
2022-08-25T10:11:04.764Z,14.05
2022-08-25T10:13:43.523Z,25.80
2022-08-25T10:16:30.834Z,13.82
2022-08-25T10:19:06.295Z,9.98
2022-08-25T10:21:36.355Z,11.80
2022-08-25T10:24:08.570Z,10.68
2022-08-25T10:26:54.160Z,12.48
2022-08-25T10:29:42.098Z,12.27
2022-08-25T10:32:14.872Z,17.20
2022-08-25T10:34:51.619Z,16.02
2022-08-25T10:37:32.855Z,18.48
2022-08-25T10:40:06.495Z,15.70
2022-08-25T10:42:36.306Z,22.80
2022-08-25T10:45:28.851Z,24.13
2022-08-25T10:48:16.947Z,28.42
2022-08-25T10:50:50.265Z,32.67
2022-08-25T10:53:30.772Z,30.20
2022-08-25T10:56:07.696Z,30.23
2022-08-25T10:58:55.841Z,39.22
2022-08-25T11:01:44.627Z,29.33
2022-08-25T11:04:18.439Z,32.08
2022-08-25T11:06:54.593Z,26.88
2022-08-25T11:09:26.797Z,28.52
2022-08-25T11:11:58.182Z,23.80
2022-08-25T11:14:35.034Z,23.08
2022-08-25T11:17:10.810Z,24.50
2022-08-25T11:19:41.772Z,28.85
2022-08-25T11:22:23.102Z,30.50
2022-08-25T11:25:19.299Z,40.55
2022-08-25T11:28:17.314Z,39.00
2022-08-25T11:30:47.084Z,40.00
2022-08-25T11:33:17.001Z,37.78
2022-08-25T11:35:49.133Z,42.65
2022-08-25T11:38:19.233Z,36.53
2022-08-25T11:40:53.192Z,34.95
2022-08-25T11:43:35.848Z,36.35
2022-08-25T11:46:09.289Z,31.80
2022-08-25T11:48:45.170Z,35.95
2022-08-25T11:51:30.931Z,43.42
2022-08-25T11:54:29.641Z,46.67
2022-08-25T11:57:08.109Z,34.30
2022-08-25T11:59:53.629Z,36.10
2022-08-25T12:02:42.483Z,34.03
2022-08-25T12:05:34.852Z,24.60
2022-08-25T12:08:26.497Z,30.42
2022-08-25T12:11:10.923Z,25.75
2022-08-25T12:13:44.319Z,28.15
2022-08-25T12:16:36.705Z,31.85
2022-08-25T12:19:25.574Z,27.15
2022-08-25T12:21:56.105Z,29.35
2022-08-25T12:24:29.410Z,25.70
2022-08-25T12:27:01.801Z,26.05
2022-08-25T12:29:41.441Z,27.17
2022-08-25T12:32:14.556Z,21.73
2022-08-25T12:34:50.562Z,18.92
2022-08-25T12:37:21.171Z,20.83
2022-08-25T12:39:54.037Z,24.70
2022-08-25T12:42:34.249Z,16.52
2022-08-25T12:45:23.281Z,26.40
2022-08-25T12:47:55.249Z,17.13
2022-08-25T12:50:34.156Z,21.20
2022-08-25T12:53:10.175Z,16.23
2022-08-25T12:55:41.073Z,19.73
2022-08-25T12:58:11.894Z,22.92
2022-08-25T13:01:07.037Z,17.73
2022-08-25T13:03:57.406Z,18.90
2022-08-25T13:06:30.578Z,15.68
2022-08-25T13:09:02.677Z,20.35
2022-08-25T13:11:50.682Z,17.65
2022-08-25T13:14:54.085Z,16.15
2022-08-25T13:17:31.302Z,19.50
2022-08-25T13:20:21.459Z,14.57
2022-08-25T13:22:57.443Z,13.70
2022-08-25T13:25:32.122Z,16.45
2022-08-25T13:28:03.734Z,14.13
2022-08-25T13:30:35.395Z,14.38
2022-08-25T13:33:21.991Z,16.17
2022-08-25T13:36:16.517Z,20.05
2022-08-25T13:38:47.338Z,17.95
2022-08-25T13:41:20.920Z,19.77
2022-08-25T13:43:51.444Z,17.52
2022-08-25T13:46:21.919Z,20.10
2022-08-25T13:48:51.811Z,14.30
2022-08-25T13:51:31.202Z,17.42
2022-08-25T13:54:02.563Z,15.70
2022-08-25T13:56:40.537Z,12.82
2022-08-25T13:59:28.795Z,20.83
2022-08-25T14:01:58.557Z,15.85
2022-08-25T14:04:35.554Z,16.98
2022-08-25T14:07:34.395Z,23.85
2022-08-25T14:10:29.147Z,17.20
2022-08-25T14:13:15.791Z,15.73
2022-08-25T14:15:48.573Z,20.15
2022-08-25T14:18:18.145Z,21.42
2022-08-25T14:20:51.979Z,17.70
2022-08-25T14:23:25.501Z,19.30
2022-08-25T14:25:56.788Z,15.90
2022-08-25T14:28:27.526Z,17.65
2022-08-25T14:31:11.071Z,17.77
2022-08-25T14:33:55.570Z,21.00
2022-08-25T14:36:25.149Z,19.95
2022-08-25T14:38:56.839Z,15.15
2022-08-25T14:41:27.942Z,13.43
2022-08-25T14:43:57.615Z,12.63
2022-08-25T14:46:31.912Z,18.85
2022-08-25T14:49:02.253Z,17.60
2022-08-25T14:51:33.864Z,14.60
2022-08-25T14:54:07.457Z,21.08
2022-08-25T14:56:38.804Z,12.57
2022-08-25T14:59:12.818Z,12.40
2022-08-25T15:01:42.580Z,15.77
2022-08-25T15:04:19.974Z,13.95
2022-08-25T15:06:51.035Z,18.27
2022-08-25T15:09:23.266Z,19.08
2022-08-25T15:11:54.976Z,30.73
2022-08-25T15:14:28.828Z,20.92
2022-08-25T15:17:02.579Z,20.67
2022-08-25T15:19:32.979Z,14.45
2022-08-25T15:22:02.830Z,16.92
2022-08-25T15:24:34.987Z,13.73
2022-08-25T15:27:10.322Z,16.42
2022-08-25T15:29:40.177Z,14.77
2022-08-25T15:32:10.697Z,12.38
2022-08-25T15:34:41.350Z,17.77
2022-08-25T15:37:14.919Z,15.85
2022-08-25T15:39:45.089Z,15.57
2022-08-25T15:42:15.498Z,21.73
2022-08-25T15:44:53.288Z,16.60
2022-08-25T15:47:25.401Z,14.10
2022-08-25T15:49:56.181Z,11.25
2022-08-25T15:52:28.353Z,14.23
2022-08-25T15:55:10.016Z,15.38
2022-08-25T15:57:40.266Z,14.43
2022-08-25T16:00:13.540Z,17.20
2022-08-25T16:02:46.569Z,13.65
2022-08-25T16:05:16.763Z,17.75
2022-08-25T16:07:51.684Z,9.82
2022-08-25T16:10:21.965Z,12.82
2022-08-25T16:12:51.612Z,16.13
2022-08-25T16:15:28.607Z,17.85
2022-08-25T16:17:58.826Z,10.98
2022-08-25T16:20:28.911Z,11.38
2022-08-25T16:22:59.491Z,17.27
2022-08-25T16:25:29.830Z,11.90
2022-08-25T16:27:59.478Z,11.07
2022-08-25T16:30:28.930Z,11.75
2022-08-25T16:32:58.470Z,9.50
2022-08-25T16:35:30.753Z,10.63
2022-08-25T16:38:00.287Z,7.45
2022-08-25T16:40:33.916Z,8.70
2022-08-25T16:43:03.942Z,13.23
2022-08-25T16:45:33.545Z,18.35
2022-08-25T16:48:03.657Z,10.55
2022-08-25T16:50:34.605Z,11.23
2022-08-25T16:53:23.864Z,12.55
2022-08-25T16:56:02.979Z,13.23
2022-08-25T16:58:32.567Z,16.02
2022-08-25T17:01:15.347Z,9.48
2022-08-25T17:03:46.167Z,10.75
2022-08-25T17:06:17.009Z,12.43
2022-08-25T17:08:47.084Z,14.50
2022-08-25T17:11:17.927Z,8.95
2022-08-25T17:13:49.717Z,12.75
2022-08-25T17:16:19.819Z,13.30
2022-08-25T17:18:50.183Z,12.65
2022-08-25T17:21:24.331Z,12.70
2022-08-25T17:23:54.813Z,9.05
2022-08-25T17:26:27.916Z,11.80
2022-08-25T17:29:01.550Z,12.88
2022-08-25T17:31:31.590Z,19.52
2022-08-25T17:34:03.870Z,8.82
2022-08-25T17:36:33.462Z,14.95
2022-08-25T17:39:03.662Z,11.68
2022-08-25T17:41:33.337Z,8.55
2022-08-25T17:44:07.520Z,7.57
2022-08-25T17:46:41.798Z,14.85
2022-08-25T17:49:16.836Z,6.45
2022-08-25T17:51:46.590Z,7.95
2022-08-25T17:54:16.502Z,7.22
2022-08-25T17:56:47.264Z,9.77
2022-08-25T17:59:17.976Z,14.35
2022-08-25T18:01:47.813Z,11.52
2022-08-25T18:04:19.562Z,15.50
2022-08-25T18:06:49.758Z,9.68
2022-08-25T18:09:20.580Z,9.70
2022-08-25T18:11:50.915Z,10.82
2022-08-25T18:14:24.811Z,11.90
2022-08-25T18:16:55.413Z,12.93
2022-08-25T18:19:25.271Z,10.45
2022-08-25T18:21:55.457Z,11.80
2022-08-25T18:24:25.007Z,7.22
2022-08-25T18:26:57.107Z,22.70
2022-08-25T18:29:28.983Z,15.60
2022-08-25T18:32:00.367Z,16.77
2022-08-25T18:34:30.548Z,12.10
2022-08-25T18:37:20.871Z,10.32
2022-08-25T18:40:08.818Z,9.80
2022-08-25T18:42:38.386Z,9.10
2022-08-25T18:45:08.887Z,9.70
2022-08-25T18:47:42.860Z,14.45
2022-08-25T18:50:13.663Z,11.75
2022-08-25T18:52:44.294Z,8.20
2022-08-25T18:55:13.991Z,9.43
2022-08-25T18:57:43.589Z,10.13
2022-08-25T19:00:14.225Z,8.57
2022-08-25T19:02:47.072Z,11.05
2022-08-25T19:05:16.991Z,12.13
2022-08-25T19:07:51.678Z,18.25
2022-08-25T19:10:24.094Z,14.32
2022-08-25T19:12:55.534Z,11.07
2022-08-25T19:15:26.936Z,10.82
2022-08-25T19:17:56.739Z,14.63
2022-08-25T19:20:27.415Z,12.10
2022-08-25T19:22:57.011Z,16.67
2022-08-25T19:25:33.138Z,13.45
2022-08-25T19:28:04.394Z,17.50
2022-08-25T19:30:36.839Z,13.65
2022-08-25T19:33:11.670Z,21.75
2022-08-25T19:35:50.705Z,13.40
2022-08-25T19:41:10.398Z,15.68
2022-08-25T19:43:56.504Z,19.17
2022-08-25T19:46:32.858Z,15.75
2022-08-25T19:49:08.179Z,14.73
2022-08-25T19:51:46.333Z,15.98
2022-08-25T19:54:16.820Z,19.65
2022-08-25T19:56:54.885Z,18.08
2022-08-25T19:59:40.608Z,21.90
2022-08-25T20:02:17.266Z,17.63
2022-08-25T20:04:49.872Z,17.92
2022-08-25T20:07:20.660Z,15.73
2022-08-25T20:09:50.276Z,19.95
2022-08-25T20:12:21.540Z,14.05
2022-08-25T20:14:51.283Z,16.90
2022-08-25T20:17:24.514Z,15.52
2022-08-25T20:20:00.711Z,18.33
2022-08-25T20:22:30.981Z,18.42
2022-08-25T20:25:01.111Z,16.27
2022-08-25T20:27:37.901Z,12.13
2022-08-25T20:30:14.568Z,22.75
2022-08-25T20:32:48.124Z,17.90
2022-08-25T20:35:19.044Z,14.40
2022-08-25T20:37:50.183Z,14.25
2022-08-25T20:40:25.673Z,18.60
2022-08-25T20:42:56.348Z,11.65
2022-08-25T20:45:25.971Z,15.43
2022-08-25T20:47:55.535Z,13.25
2022-08-25T20:50:25.554Z,15.32
2022-08-25T20:52:57.919Z,15.32
2022-08-25T20:55:29.107Z,18.25
2022-08-25T20:57:59.786Z,20.17
2022-08-25T21:00:29.271Z,13.85
2022-08-25T21:02:58.839Z,19.48
2022-08-25T21:05:30.221Z,24.65
2022-08-25T21:08:01.233Z,23.88
2022-08-25T21:10:31.326Z,19.15
2022-08-25T21:13:00.832Z,27.52
2022-08-25T21:15:31.231Z,17.98
2022-08-25T21:18:00.733Z,20.02
2022-08-25T21:20:30.675Z,18.88
2022-08-25T21:23:00.455Z,16.55
2022-08-25T21:25:29.982Z,21.92
2022-08-25T21:27:59.654Z,16.83
2022-08-25T21:30:29.962Z,18.73
2022-08-25T21:32:59.511Z,18.17
2022-08-25T21:35:29.294Z,21.38
2022-08-25T21:37:58.947Z,16.85
2022-08-25T21:40:28.522Z,14.65
2022-08-25T21:42:59.190Z,18.25
2022-08-25T21:45:33.295Z,20.40
2022-08-25T21:48:05.809Z,24.15
2022-08-25T21:50:35.418Z,23.73
2022-08-25T21:53:05.214Z,21.90
2022-08-25T21:55:34.914Z,23.88
2022-08-25T21:58:05.921Z,22.65
2022-08-25T22:00:35.592Z,23.38
2022-08-25T22:03:05.198Z,26.48
2022-08-25T22:05:35.754Z,26.30
2022-08-25T22:08:08.545Z,22.75
2022-08-25T22:10:38.185Z,20.73
2022-08-25T22:13:08.952Z,21.45
2022-08-25T22:15:38.571Z,26.45
2022-08-25T22:18:13.498Z,24.92
2022-08-25T22:20:43.645Z,31.20
2022-08-25T22:23:20.276Z,25.95
2022-08-25T22:25:50.109Z,23.13
2022-08-25T22:28:20.866Z,20.75
2022-08-25T22:30:50.972Z,27.02
2022-08-25T22:33:24.998Z,21.75
2022-08-25T22:35:59.861Z,28.20
2022-08-25T22:38:29.601Z,15.85
2022-08-25T22:41:03.847Z,23.92
2022-08-25T22:43:33.387Z,25.08
2022-08-25T22:46:04.310Z,26.63
2022-08-25T22:48:34.993Z,21.00
2022-08-25T22:51:07.024Z,23.95
2022-08-25T22:53:36.893Z,27.55
2022-08-25T22:56:06.838Z,28.10
2022-08-25T22:58:36.806Z,28.92
2022-08-25T23:01:06.375Z,33.92
2022-08-25T23:03:36.055Z,37.67
2022-08-25T23:06:18.652Z,45.30
2022-08-25T23:08:51.600Z,35.78
2022-08-25T23:11:23.566Z,51.53
2022-08-25T23:13:53.435Z,44.65
2022-08-25T23:16:24.940Z,56.60
2022-08-25T23:18:54.514Z,48.15
2022-08-25T23:21:42.701Z,66.25
2022-08-25T23:24:13.756Z,82.13
2022-08-25T23:26:56.565Z,67.82
2022-08-25T23:29:26.132Z,70.38
2022-08-25T23:31:55.902Z,77.47
2022-08-25T23:34:25.498Z,72.45
2022-08-25T23:36:56.164Z,72.38
2022-08-25T23:39:25.726Z,72.60
2022-08-25T23:41:55.330Z,76.13
2022-08-25T23:44:25.708Z,69.95
2022-08-25T23:46:55.265Z,62.40
2022-08-25T23:49:27.717Z,71.68
2022-08-25T23:51:57.909Z,61.08
2022-08-25T23:54:30.956Z,67.65
2022-08-25T23:57:00.773Z,65.82
2022-08-25T23:59:31.132Z,65.22
